Time;durP1;ratioP1;P1;durP2;ratioP2;P2;SDS_P1;SDS_P2;PMS_P1;PMS_P2;Temp;Humidity;BMP_temperature;BMP_pressure;BME280_temperature;BME280_humidity;BME280_pressure;Samples;Min_cycle;Max_cycle;Signal;HPM_P1;HPM_P2
2023/02/01 00:02:06;;;;;;;0.70;0.70;;;6.20;99.90;;;;;;5050094;28;20048;-86
2023/02/01 00:04:35;;;;;;;0.60;0.60;;;6.20;99.90;;;;;;5046007;28;20120;-86
2023/02/01 00:07:01;;;;;;;0.88;0.88;;;6.20;99.90;;;;;;5042986;28;20445;-86
2023/02/01 00:09:26;;;;;;;0.50;0.50;;;6.20;99.90;;;;;;5049444;28;20107;-85
2023/02/01 00:11:52;;;;;;;0.50;0.50;;;6.20;99.90;;;;;;5039950;28;20044;-83
2023/02/01 00:14:18;;;;;;;0.50;0.50;;;6.20;99.90;;;;;;5053113;28;20080;-84
2023/02/01 00:16:44;;;;;;;1.10;1.10;;;6.20;99.90;;;;;;5034164;28;20045;-85
2023/02/01 00:19:13;;;;;;;0.40;0.40;;;6.20;99.90;;;;;;5035521;28;20036;-85
2023/02/01 00:21:39;;;;;;;0.60;0.60;;;6.20;99.90;;;;;;5029699;28;20045;-85
2023/02/01 00:24:05;;;;;;;0.80;0.80;;;6.20;99.90;;;;;;5027444;28;20044;-84
2023/02/01 00:26:40;;;;;;;0.98;0.98;;;6.20;99.90;;;;;;5050965;28;20117;-86
2023/02/01 00:29:14;;;;;;;0.50;0.50;;;6.20;99.90;;;;;;5030826;28;20549;-87
2023/02/01 00:31:40;;;;;;;2.25;1.88;;;6.20;99.90;;;;;;5044502;28;20053;-87
2023/02/01 00:34:06;;;;;;;0.60;0.60;;;6.20;99.90;;;;;;5033142;28;20056;-85
2023/02/01 00:36:32;;;;;;;;;;;6.30;99.90;;;;;;5029427;28;20092;-87
2023/02/01 00:38:58;;;;;;;0.65;0.65;;;6.30;99.90;;;;;;5037109;28;20061;-84
2023/02/01 00:41:24;;;;;;;0.50;0.50;;;6.20;99.90;;;;;;5039448;28;20073;-84
2023/02/01 00:43:50;;;;;;;0.50;0.50;;;6.30;99.90;;;;;;5047833;28;20052;-85
2023/02/01 00:46:18;;;;;;;0.63;0.63;;;6.30;99.90;;;;;;5054658;28;20041;-85
2023/02/01 00:48:44;;;;;;;0.70;0.70;;;6.40;99.90;;;;;;5037466;28;20048;-87
2023/02/01 00:51:15;;;;;;;0.60;0.60;;;6.40;99.90;;;;;;5037668;28;20048;-87
2023/02/01 00:53:41;;;;;;;1.80;1.70;;;6.30;99.90;;;;;;5070116;28;20041;-85
2023/02/01 00:56:08;;;;;;;4.57;3.58;;;6.40;99.90;;;;;;5044816;28;20041;-87
2023/02/01 00:58:34;;;;;;;0.60;0.60;;;6.40;99.90;;;;;;5054622;28;20132;-85
2023/02/01 01:01:17;;;;;;;0.93;0.93;;;6.40;99.90;;;;;;5050309;28;20431;-87
2023/02/01 01:03:45;;;;;;;0.68;0.68;;;6.40;99.90;;;;;;5051828;28;20048;-87
2023/02/01 01:06:14;;;;;;;0.60;0.60;;;6.40;99.90;;;;;;5043002;28;20049;-86
2023/02/01 01:08:41;;;;;;;0.50;0.50;;;6.40;99.90;;;;;;5046277;28;20045;-87
2023/02/01 01:11:13;;;;;;;0.60;0.60;;;6.40;99.90;;;;;;5033475;28;20037;-87
2023/02/01 01:13:42;;;;;;;0.50;0.50;;;6.30;99.90;;;;;;5046875;28;20510;-87
2023/02/01 01:16:10;;;;;;;0.70;0.70;;;6.40;99.90;;;;;;5050419;28;20037;-85
2023/02/01 01:18:36;;;;;;;0.57;0.57;;;6.40;99.90;;;;;;5043152;28;20037;-86
2023/02/01 01:21:05;;;;;;;1.08;1.08;;;6.40;99.90;;;;;;5051418;28;20533;-87
2023/02/01 01:23:31;;;;;;;0.70;0.70;;;6.30;99.90;;;;;;5055521;28;20095;-87
2023/02/01 01:25:57;;;;;;;0.70;0.70;;;6.30;99.90;;;;;;5053442;28;20076;-86
2023/02/01 01:28:22;;;;;;;0.60;0.60;;;6.30;99.90;;;;;;5054243;28;20064;-85
2023/02/01 01:30:48;;;;;;;0.50;0.50;;;6.30;99.90;;;;;;5051574;28;20076;-86
2023/02/01 01:33:14;;;;;;;0.55;0.55;;;6.40;99.90;;;;;;5052368;28;20044;-86
2023/02/01 01:35:40;;;;;;;0.50;0.50;;;6.40;99.90;;;;;;5051466;28;20045;-86
2023/02/01 01:38:05;;;;;;;14.15;2.67;;;6.30;99.90;;;;;;5036140;28;20047;-86
2023/02/01 01:40:31;;;;;;;27.17;1.27;;;6.40;99.90;;;;;;5016131;28;20042;-86
2023/02/01 01:42:57;;;;;;;;;;;6.30;99.90;;;;;;5052043;28;20048;-85
2023/02/01 01:45:34;;;;;;;13.52;1.55;;;6.30;99.90;;;;;;5044953;28;19921;-86
2023/02/01 01:48:16;;;;;;;22.48;1.58;;;6.30;99.90;;;;;;5036300;28;20106;-85
2023/02/01 01:50:43;;;;;;;1.17;0.93;;;6.10;99.90;;;;;;5035009;28;20099;-86
2023/02/01 01:53:13;;;;;;;0.90;0.90;;;6.00;99.90;;;;;;5035046;28;20036;-85
2023/02/01 01:55:43;;;;;;;7.13;4.07;;;6.00;99.90;;;;;;5050952;28;20115;-86
2023/02/01 01:58:22;;;;;;;0.60;0.60;;;5.90;99.90;;;;;;5041683;28;20433;-85
2023/02/01 02:00:48;;;;;;;0.55;0.55;;;5.80;99.90;;;;;;5052111;28;20103;-86
2023/02/01 02:03:38;;;;;;;1.00;1.00;;;5.70;99.90;;;;;;5053284;28;20033;-86
2023/02/01 02:06:13;;;;;;;0.65;0.65;;;5.70;99.90;;;;;;5046828;28;20052;-85
2023/02/01 02:08:39;;;;;;;0.60;0.60;;;5.70;99.90;;;;;;5045878;28;20049;-85
2023/02/01 02:11:05;;;;;;;0.60;0.60;;;5.70;99.90;;;;;;5031295;28;20082;-86
2023/02/01 02:13:40;;;;;;;0.90;0.88;;;5.60;99.90;;;;;;5035867;28;20076;-86
2023/02/01 02:16:14;;;;;;;0.60;0.60;;;5.70;99.90;;;;;;5041662;28;20831;-85
2023/02/01 02:18:49;;;;;;;0.50;0.50;;;5.60;99.90;;;;;;5051504;28;20033;-85
2023/02/01 02:21:30;;;;;;;1.00;1.00;;;5.60;99.90;;;;;;5045514;28;20048;-86
2023/02/01 02:24:08;;;;;;;0.70;0.70;;;5.60;99.90;;;;;;5051425;28;20064;-86
2023/02/01 02:27:24;;;;;;;0.50;0.50;;;5.60;99.90;;;;;;5043670;28;20136;-86
2023/02/01 02:30:09;;;;;;;0.50;0.50;;;5.60;99.90;;;;;;4987169;28;20041;-85
2023/02/01 02:32:41;;;;;;;0.60;0.60;;;5.60;99.90;;;;;;4985739;28;20168;-84
2023/02/01 02:35:15;;;;;;;0.60;0.60;;;5.50;99.90;;;;;;5012679;28;20076;-86
2023/02/01 02:38:04;;;;;;;1.02;1.02;;;5.60;99.90;;;;;;5031503;28;20049;-86
2023/02/01 02:40:42;;;;;;;0.57;0.57;;;5.50;99.90;;;;;;5033438;28;20508;-86
2023/02/01 02:49:42;;;;;;;0.60;0.60;;;5.50;99.90;;;;;;5053943;28;20079;-86
2023/02/01 02:55:10;;;;;;;0.50;0.50;;;5.60;99.90;;;;;;5036299;28;20055;-85
2023/02/01 03:06:02;;;;;;;1.92;1.83;;;5.70;99.90;;;;;;5052259;28;20109;-87
2023/02/01 03:08:30;;;;;;;0.50;0.50;;;5.90;99.90;;;;;;5034204;28;20127;-86
2023/02/01 03:11:02;;;;;;;0.50;0.50;;;5.90;99.90;;;;;;5026660;28;20128;-86
2023/02/01 03:13:46;;;;;;;0.55;0.55;;;5.90;99.90;;;;;;5041399;28;20444;-83
2023/02/01 03:16:28;;;;;;;2.00;0.68;;;6.00;99.90;;;;;;5049547;28;20115;-83
2023/02/01 03:19:05;;;;;;;2.65;1.10;;;6.00;99.90;;;;;;5047439;28;20083;-85
2023/02/01 03:21:39;;;;;;;;;;;6.00;99.90;;;;;;5051678;28;20081;-86
2023/02/01 03:24:17;;;;;;;2.15;1.88;;;6.10;99.90;;;;;;5033489;28;20014;-85
2023/02/01 03:26:55;;;;;;;0.52;0.52;;;6.10;99.90;;;;;;5026586;28;20041;-87
2023/02/01 03:29:30;;;;;;;0.40;0.40;;;6.10;99.90;;;;;;5044013;28;20047;-87
2023/02/01 03:31:56;;;;;;;0.60;0.60;;;6.00;99.90;;;;;;5038608;28;20067;-86
2023/02/01 03:34:22;;;;;;;0.50;0.50;;;6.10;99.90;;;;;;5018050;28;20478;-86
2023/02/01 03:36:51;;;;;;;0.50;0.50;;;6.10;99.90;;;;;;5034866;28;20052;-85
2023/02/01 03:39:39;;;;;;;1.45;1.45;;;6.00;99.90;;;;;;5045666;28;20056;-86
2023/02/01 03:42:24;;;;;;;0.75;0.75;;;6.10;99.90;;;;;;5026870;28;20064;-87
2023/02/01 03:45:04;;;;;;;0.50;0.50;;;6.30;99.90;;;;;;5044144;28;20067;-87
2023/02/01 03:47:34;;;;;;;1.42;1.42;;;6.20;99.90;;;;;;5034416;28;20528;-86
2023/02/01 03:50:08;;;;;;;0.65;0.65;;;6.20;99.90;;;;;;5037932;28;20049;-86
2023/02/01 03:52:38;;;;;;;1.20;1.20;;;6.20;99.90;;;;;;5033296;28;20091;-85
2023/02/01 03:55:06;;;;;;;0.47;0.47;;;6.20;99.90;;;;;;5049245;28;20520;-86
2023/02/01 03:57:35;;;;;;;1.90;1.83;;;6.00;99.90;;;;;;5049523;28;20041;-86
2023/02/01 04:00:22;;;;;;;0.57;0.57;;;5.90;99.90;;;;;;5046692;28;20116;-85
2023/02/01 04:02:49;;;;;;;0.82;0.65;;;6.00;99.90;;;;;;5048277;28;20102;-86
2023/02/01 04:05:14;;;;;;;0.77;0.77;;;5.90;99.90;;;;;;5030957;28;20108;-86
2023/02/01 04:07:41;;;;;;;0.70;0.70;;;5.80;99.90;;;;;;5044947;28;20124;-86
2023/02/01 04:10:07;;;;;;;1.58;1.15;;;5.80;99.90;;;;;;5049448;28;20064;-85
2023/02/01 04:12:32;;;;;;;;;;;5.80;99.90;;;;;;5051304;28;20040;-86
2023/02/01 04:14:58;;;;;;;2.25;2.15;;;5.80;99.90;;;;;;5046914;28;20439;-86
2023/02/01 04:17:24;;;;;;;3.00;0.75;;;5.80;99.90;;;;;;5051461;28;20119;-85
2023/02/01 04:19:50;;;;;;;2.50;1.42;;;5.90;99.90;;;;;;5020770;28;20060;-86
2023/02/01 04:22:15;;;;;;;4.85;3.88;;;5.90;99.90;;;;;;5038591;28;20504;-87
2023/02/01 04:24:41;;;;;;;0.82;0.80;;;6.00;99.90;;;;;;5050724;28;20048;-87
2023/02/01 04:27:07;;;;;;;0.60;0.60;;;5.90;99.90;;;;;;5030555;28;20461;-85
2023/02/01 04:29:32;;;;;;;1.02;1.02;;;5.90;99.90;;;;;;5024589;28;20744;-86
2023/02/01 04:31:58;;;;;;;0.65;0.65;;;5.90;99.90;;;;;;5034547;28;20176;-87
2023/02/01 04:34:24;;;;;;;2.72;2.63;;;5.90;99.90;;;;;;5045700;28;20052;-85
2023/02/01 04:36:50;;;;;;;;;;;5.90;99.90;;;;;;5026876;28;20493;-86
2023/02/01 04:39:16;;;;;;;0.60;0.60;;;5.90;99.90;;;;;;5043586;28;19927;-87
2023/02/01 04:41:42;;;;;;;27.20;2.08;;;6.00;99.90;;;;;;5022008;28;20054;-86
2023/02/01 04:44:17;;;;;;;0.80;0.80;;;6.00;99.90;;;;;;5035743;28;20068;-86
2023/02/01 04:46:44;;;;;;;0.60;0.60;;;6.00;99.90;;;;;;5022741;28;20050;-88
2023/02/01 04:49:11;;;;;;;0.95;0.95;;;6.00;99.90;;;;;;5047694;28;20056;-87
2023/02/01 04:51:37;;;;;;;0.80;0.80;;;6.00;99.90;;;;;;5050291;28;20045;-85
2023/02/01 04:54:03;;;;;;;0.75;0.75;;;6.00;99.90;;;;;;5034510;28;20367;-85
2023/02/01 04:56:28;;;;;;;0.65;0.65;;;6.00;99.90;;;;;;5029958;28;20068;-87
2023/02/01 04:58:55;;;;;;;0.70;0.70;;;6.20;99.90;;;;;;5035467;28;20064;-86
2023/02/01 05:01:24;;;;;;;0.60;0.60;;;6.00;99.90;;;;;;5033115;28;20463;-86
2023/02/01 05:03:50;;;;;;;0.60;0.60;;;6.00;99.90;;;;;;5043975;28;20044;-87
2023/02/01 05:06:16;;;;;;;;;;;5.90;99.90;;;;;;5042995;28;20045;-87
2023/02/01 05:08:43;;;;;;;0.70;0.70;;;5.90;99.90;;;;;;5038368;28;19924;-86
2023/02/01 05:13:47;;;;;;;0.50;0.50;;;5.90;99.90;;;;;;5045922;28;20080;-87
2023/02/01 05:13:54;;;;;;;1.52;1.52;;;5.90;99.90;;;;;;5036487;28;20060;-86
2023/02/01 05:16:20;;;;;;;0.60;0.60;;;6.00;99.90;;;;;;5047350;28;20041;-87
2023/02/01 05:18:46;;;;;;;0.52;0.52;;;6.00;99.90;;;;;;5026847;28;20037;-85
2023/02/01 05:21:12;;;;;;;1.02;1.02;;;6.00;99.90;;;;;;5030257;28;20052;-85
2023/02/01 05:24:09;;;;;;;;;;;6.00;99.90;;;;;;5054129;28;20040;-85
2023/02/01 05:26:23;;;;;;;0.73;0.73;;;5.90;99.90;;;;;;5035436;28;19917;-86
2023/02/01 05:28:49;;;;;;;0.88;0.88;;;5.90;99.90;;;;;;5049872;28;20049;-85
2023/02/01 05:31:15;;;;;;;0.70;0.70;;;5.90;99.90;;;;;;5032488;28;20044;-85
2023/02/01 05:33:41;;;;;;;0.60;0.60;;;6.00;99.90;;;;;;5028031;28;20040;-85
2023/02/01 05:36:07;;;;;;;0.70;0.70;;;6.10;99.90;;;;;;5046517;28;20095;-85
2023/02/01 05:38:32;;;;;;;0.50;0.50;;;6.00;99.90;;;;;;5044234;28;20037;-85
2023/02/01 05:40:58;;;;;;;0.70;0.70;;;6.20;99.90;;;;;;5028997;28;20088;-84
2023/02/01 05:43:24;;;;;;;0.50;0.50;;;6.10;99.90;;;;;;5030683;28;20033;-85
2023/02/01 05:45:52;;;;;;;0.50;0.50;;;6.20;99.90;;;;;;5049031;28;20203;-85
2023/02/01 05:48:18;;;;;;;0.40;0.40;;;6.20;99.90;;;;;;5043900;28;20375;-87
2023/02/01 05:50:43;;;;;;;0.40;0.40;;;6.30;99.90;;;;;;5028981;28;20095;-85
2023/02/01 05:53:09;;;;;;;0.60;0.60;;;6.30;99.90;;;;;;5035377;28;20033;-85
2023/02/01 05:55:36;;;;;;;0.50;0.50;;;6.30;99.90;;;;;;5015266;28;20550;-84
2023/02/01 05:58:02;;;;;;;0.57;0.57;;;6.30;99.90;;;;;;5062454;28;20069;-86
2023/02/01 06:00:28;;;;;;;0.50;0.50;;;6.30;99.90;;;;;;5049568;28;20076;-85
2023/02/01 06:02:53;;;;;;;0.60;0.60;;;6.30;99.90;;;;;;5021017;28;20160;-86
2023/02/01 06:05:19;;;;;;;0.60;0.60;;;6.10;99.90;;;;;;5043435;28;20045;-85
2023/02/01 06:07:45;;;;;;;0.55;0.55;;;6.00;99.90;;;;;;5032431;28;20049;-85
2023/02/01 06:10:11;;;;;;;0.50;0.50;;;6.00;99.90;;;;;;5040910;28;20448;-85
2023/02/01 06:12:37;;;;;;;1.77;1.15;;;6.00;99.90;;;;;;5049183;28;20040;-86
2023/02/01 06:15:03;;;;;;;0.50;0.50;;;6.00;99.90;;;;;;5046034;28;20053;-85
2023/02/01 06:17:28;;;;;;;1.23;1.23;;;6.00;99.90;;;;;;5047907;28;20049;-86
2023/02/01 06:19:54;;;;;;;0.57;0.57;;;6.00;99.90;;;;;;5042836;28;20045;-85
2023/02/01 06:22:21;;;;;;;0.50;0.50;;;6.00;99.90;;;;;;5046616;28;20036;-84
2023/02/01 06:24:47;;;;;;;0.50;0.50;;;6.00;99.90;;;;;;5026982;28;20049;-85
2023/02/01 06:27:13;;;;;;;0.57;0.57;;;6.00;99.90;;;;;;5049854;28;20048;-86
2023/02/01 06:29:39;;;;;;;0.57;0.57;;;6.10;99.90;;;;;;5045009;28;20044;-85
2023/02/01 06:32:05;;;;;;;6.60;1.95;;;6.10;99.90;;;;;;5043026;28;20032;-86
2023/02/01 06:34:30;;;;;;;0.50;0.50;;;6.10;99.90;;;;;;5039210;28;20101;-86
2023/02/01 06:36:56;;;;;;;0.60;0.60;;;6.10;99.90;;;;;;5027888;28;20044;-85
2023/02/01 06:39:22;;;;;;;0.50;0.50;;;6.00;99.90;;;;;;5042341;28;20056;-86
2023/02/01 06:41:48;;;;;;;2.13;1.42;;;6.10;99.90;;;;;;5025365;28;20055;-85
2023/02/01 06:44:14;;;;;;;0.90;0.90;;;6.10;99.90;;;;;;5047870;28;20042;-86
2023/02/01 06:46:40;;;;;;;;;;;6.10;99.90;;;;;;5046994;28;20508;-84
2023/02/01 06:49:06;;;;;;;0.50;0.50;;;6.10;99.90;;;;;;5054081;28;20003;-85
2023/02/01 06:51:32;;;;;;;0.50;0.50;;;6.10;99.90;;;;;;5031487;28;20133;-85
2023/02/01 06:53:57;;;;;;;1.65;1.55;;;6.10;99.90;;;;;;5046914;28;20076;-85
2023/02/01 06:56:27;;;;;;;0.60;0.60;;;6.10;99.90;;;;;;5050829;28;20033;-83
2023/02/01 06:58:53;;;;;;;1.45;1.45;;;6.20;99.90;;;;;;5040911;28;20079;-85
2023/02/01 07:01:19;;;;;;;0.50;0.50;;;6.10;99.90;;;;;;5046175;28;20044;-85
2023/02/01 07:03:51;;;;;;;0.60;0.60;;;6.20;99.90;;;;;;5034834;28;20132;-85
2023/02/01 07:06:17;;;;;;;0.50;0.50;;;6.20;99.90;;;;;;5042899;28;20033;-84
2023/02/01 07:08:43;;;;;;;0.52;0.52;;;6.30;99.90;;;;;;5048810;28;20128;-86
2023/02/01 07:11:12;;;;;;;0.52;0.52;;;6.20;99.90;;;;;;5046272;28;20132;-87
2023/02/01 07:13:38;;;;;;;1.55;1.50;;;6.30;99.90;;;;;;5052273;28;20059;-85
2023/02/01 07:16:07;;;;;;;0.60;0.60;;;6.20;99.90;;;;;;5035964;28;20052;-86
2023/02/01 07:18:33;;;;;;;0.68;0.68;;;6.30;99.90;;;;;;5053268;28;20097;-85
2023/02/01 07:20:59;;;;;;;0.60;0.60;;;6.20;99.90;;;;;;5047829;28;20663;-85
2023/02/01 07:23:25;;;;;;;;;;;6.30;99.90;;;;;;5035581;28;20048;-85
2023/02/01 07:25:59;;;;;;;0.50;0.50;;;6.20;99.90;;;;;;5051527;28;19916;-85
2023/02/01 07:28:26;;;;;;;0.50;0.50;;;6.30;99.90;;;;;;5049891;28;20041;-84
2023/02/01 07:30:52;;;;;;;0.50;0.50;;;6.20;99.90;;;;;;5021791;28;20076;-85
2023/02/01 07:33:18;;;;;;;;;;;6.30;99.90;;;;;;5008696;28;20049;-86
2023/02/01 07:35:44;;;;;;;0.65;0.65;;;6.20;99.90;;;;;;5051598;28;20012;-84
2023/02/01 07:38:10;;;;;;;0.50;0.50;;;6.20;99.90;;;;;;5030798;28;20096;-84
2023/02/01 07:40:36;;;;;;;2.38;1.55;;;6.20;99.90;;;;;;5017263;28;20049;-85
2023/02/01 07:43:01;;;;;;;0.50;0.50;;;6.20;99.90;;;;;;5049458;28;20056;-85
2023/02/01 07:45:27;;;;;;;0.60;0.60;;;6.20;99.90;;;;;;5053691;28;20033;-85
2023/02/01 07:47:53;;;;;;;0.68;0.68;;;6.20;99.90;;;;;;5035093;28;20091;-86
2023/02/01 07:50:19;;;;;;;0.50;0.50;;;6.20;99.90;;;;;;5030093;28;20406;-85
2023/02/01 07:52:45;;;;;;;0.50;0.50;;;6.20;99.90;;;;;;5037163;28;20163;-84
2023/02/01 07:55:10;;;;;;;0.60;0.60;;;6.20;99.90;;;;;;5054956;28;20493;-85
2023/02/01 07:57:36;;;;;;;0.40;0.40;;;6.20;99.90;;;;;;5059907;28;20049;-86
2023/02/01 08:02:47;;;;;;;0.68;0.68;;;6.20;99.90;;;;;;5033871;28;20395;-85
2023/02/01 08:05:13;;;;;;;0.98;0.98;;;6.20;99.90;;;;;;5047242;28;20044;-87
2023/02/01 08:07:38;;;;;;;3.65;2.60;;;6.30;99.90;;;;;;5051062;28;20148;-84
2023/02/01 08:10:10;;;;;;;0.75;0.75;;;6.30;99.90;;;;;;5046662;28;20136;-85
2023/02/01 08:12:36;;;;;;;0.73;0.73;;;6.20;99.90;;;;;;5049505;28;20140;-86
2023/02/01 08:15:03;;;;;;;0.52;0.52;;;6.30;99.90;;;;;;5018141;28;20094;-85
2023/02/01 08:17:29;;;;;;;1.30;1.30;;;6.30;99.90;;;;;;5034424;28;20110;-85
2023/02/01 08:19:54;;;;;;;1.70;0.77;;;6.30;99.90;;;;;;5046467;28;20037;-85
2023/02/01 08:22:20;;;;;;;0.50;0.50;;;6.30;99.90;;;;;;5041250;28;20121;-83
2023/02/01 08:24:49;;;;;;;0.57;0.57;;;6.30;99.90;;;;;;5029626;28;20359;-83
2023/02/01 08:27:15;;;;;;;0.45;0.45;;;6.40;99.90;;;;;;5051085;28;20049;-85
2023/02/01 08:29:40;;;;;;;0.60;0.60;;;6.30;99.90;;;;;;5056401;28;20437;-88
2023/02/01 08:32:06;;;;;;;0.60;0.60;;;6.30;99.90;;;;;;5055059;28;20132;-87
2023/02/01 08:34:33;;;;;;;0.60;0.60;;;6.40;99.90;;;;;;5039991;28;20044;-87
2023/02/01 08:37:00;;;;;;;0.60;0.60;;;6.40;99.90;;;;;;5057107;28;20509;-87
2023/02/01 08:39:26;;;;;;;0.45;0.45;;;6.40;99.90;;;;;;5057094;28;21007;-87
2023/02/01 08:44:36;;;;;;;0.65;0.65;;;6.40;99.90;;;;;;5038969;28;20045;-83
2023/02/01 08:47:02;;;;;;;0.60;0.60;;;6.40;99.90;;;;;;5036806;28;20041;-85
2023/02/01 08:49:28;;;;;;;0.70;0.70;;;6.40;99.90;;;;;;5034210;28;20041;-86
2023/02/01 08:51:54;;;;;;;0.50;0.50;;;6.40;99.90;;;;;;5035715;28;20045;-86
2023/02/01 08:54:21;;;;;;;1.00;1.00;;;6.40;99.90;;;;;;5032666;28;20042;-87
2023/02/01 08:56:47;;;;;;;1.02;1.02;;;6.40;99.90;;;;;;5020785;28;20100;-87
2023/02/01 08:59:12;;;;;;;0.88;0.88;;;6.40;99.90;;;;;;5034061;28;20033;-86
2023/02/01 09:01:38;;;;;;;0.50;0.50;;;6.40;99.90;;;;;;5048624;28;20401;-86
2023/02/01 09:04:04;;;;;;;0.60;0.60;;;6.40;99.90;;;;;;5047402;28;20082;-85
2023/02/01 09:06:29;;;;;;;1.45;1.45;;;6.50;99.90;;;;;;5050755;28;20041;-84
2023/02/01 09:08:56;;;;;;;0.63;0.63;;;6.50;99.90;;;;;;5050144;28;20041;-88
2023/02/01 09:11:22;;;;;;;0.50;0.50;;;6.50;99.90;;;;;;5047946;28;20041;-85
2023/02/01 09:13:48;;;;;;;1.58;1.20;;;6.50;99.90;;;;;;5053223;28;20468;-85
2023/02/01 09:16:14;;;;;;;0.52;0.52;;;6.50;99.90;;;;;;5050418;28;20041;-85
2023/02/01 09:18:40;;;;;;;1.40;1.40;;;6.50;99.90;;;;;;5049823;28;20089;-87
2023/02/01 09:21:07;;;;;;;0.60;0.60;;;6.50;99.90;;;;;;5047694;28;20418;-88
2023/02/01 09:23:33;;;;;;;0.55;0.55;;;6.50;99.90;;;;;;5033292;28;20075;-84
2023/02/01 09:25:59;;;;;;;;;;;6.50;99.90;;;;;;5052310;28;20052;-86
2023/02/01 09:28:25;;;;;;;0.60;0.60;;;6.50;99.90;;;;;;5050876;28;19960;-87
2023/02/01 09:30:59;;;;;;;0.68;0.68;;;6.50;99.90;;;;;;5038365;28;20447;-85
2023/02/01 09:33:25;;;;;;;0.47;0.47;;;6.50;99.90;;;;;;5052111;28;20048;-88
2023/02/01 09:35:59;;;;;;;0.50;0.50;;;6.50;99.90;;;;;;5050335;28;20049;-83
2023/02/01 09:38:27;;;;;;;0.60;0.60;;;6.60;99.90;;;;;;5050529;28;20041;-88
2023/02/01 09:40:54;;;;;;;0.75;0.75;;;6.50;99.90;;;;;;5031490;28;20106;-86
2023/02/01 09:43:24;;;;;;;1.02;1.02;;;6.50;99.90;;;;;;5051413;28;20044;-88
2023/02/01 09:45:56;;;;;;;0.70;0.70;;;6.50;99.90;;;;;;5032593;28;20065;-87
2023/02/01 09:48:28;;;;;;;5.40;1.10;;;6.50;99.90;;;;;;5052532;28;20402;-88
2023/02/01 09:50:57;;;;;;;4.95;1.48;;;6.50;99.90;;;;;;5050859;28;20047;-84
2023/02/01 09:53:38;;;;;;;0.77;0.77;;;6.40;99.90;;;;;;5035424;28;20504;-87
2023/02/01 09:56:14;;;;;;;0.60;0.60;;;6.40;99.90;;;;;;5053625;28;20048;-85
2023/02/01 09:58:55;;;;;;;0.50;0.50;;;6.30;99.90;;;;;;5060215;28;20041;-84
2023/02/01 10:01:23;;;;;;;0.90;0.90;;;6.30;99.90;;;;;;5055753;28;20064;-85
2023/02/01 10:03:55;;;;;;;0.63;0.63;;;6.30;99.90;;;;;;5060166;28;20051;-86
2023/02/01 10:06:56;;;;;;;0.93;0.93;;;6.30;99.90;;;;;;5055804;28;20053;-89
2023/02/01 10:09:22;;;;;;;0.60;0.60;;;6.10;99.90;;;;;;5010098;28;20065;-89
2023/02/01 10:12:18;;;;;;;0.70;0.70;;;6.00;99.90;;;;;;5030427;28;20049;-89
2023/02/01 10:15:16;;;;;;;0.60;0.60;;;5.90;99.90;;;;;;5041188;28;20128;-86
2023/02/01 10:18:13;;;;;;;0.60;0.60;;;5.80;99.90;;;;;;5040561;28;20049;-87
2023/02/01 10:20:57;;;;;;;0.50;0.50;;;5.70;99.90;;;;;;5042520;28;20041;-88
2023/02/01 10:23:45;;;;;;;0.80;0.80;;;5.70;99.90;;;;;;5057525;28;20454;-87
2023/02/01 10:26:22;;;;;;;0.60;0.60;;;5.70;99.90;;;;;;5045523;28;20045;-89
2023/02/01 10:28:53;;;;;;;1.05;1.05;;;5.70;99.90;;;;;;5040054;28;20095;-87
2023/02/01 10:31:24;;;;;;;0.60;0.60;;;6.30;99.90;;;;;;5055440;28;20069;-85
2023/02/01 10:33:55;;;;;;;0.40;0.40;;;5.80;99.90;;;;;;5056720;28;20045;-87
2023/02/01 10:36:35;;;;;;;0.60;0.60;;;5.90;99.90;;;;;;5054701;28;20048;-89
2023/02/01 10:39:04;;;;;;;0.57;0.57;;;5.90;99.90;;;;;;5043679;28;20053;-87
2023/02/01 10:41:35;;;;;;;0.60;0.60;;;5.90;99.90;;;;;;5033735;28;20045;-87
2023/02/01 10:44:07;;;;;;;0.43;0.43;;;6.00;99.90;;;;;;5056184;28;20117;-85
2023/02/01 10:46:33;;;;;;;0.60;0.60;;;6.10;99.90;;;;;;5036108;28;20048;-88
2023/02/01 10:49:03;;;;;;;0.80;0.80;;;6.10;99.90;;;;;;5021056;28;20057;-89
2023/02/01 10:51:41;;;;;;;0.50;0.50;;;6.20;99.90;;;;;;5059995;28;20148;-87
2023/02/01 10:54:20;;;;;;;1.35;1.35;;;6.40;99.90;;;;;;5038387;28;20045;-85
2023/02/01 10:56:47;;;;;;;0.50;0.50;;;6.50;99.90;;;;;;5054392;28;20045;-85
2023/02/01 10:59:23;;;;;;;0.98;0.98;;;6.60;99.90;;;;;;5042928;28;20069;-85
2023/02/01 11:01:57;;;;;;;0.68;0.68;;;6.80;99.90;;;;;;5049143;28;20049;-86
2023/02/01 11:04:26;;;;;;;0.88;0.88;;;6.90;99.90;;;;;;5037392;28;20150;-87
2023/02/01 11:07:08;;;;;;;0.57;0.57;;;6.90;99.90;;;;;;5054160;28;20059;-87
2023/02/01 11:09:40;;;;;;;0.60;0.60;;;7.00;99.90;;;;;;5050780;28;20056;-85
2023/02/01 11:12:36;;;;;;;0.40;0.40;;;7.00;99.90;;;;;;5050753;28;20041;-86
2023/02/01 11:15:15;;;;;;;0.70;0.70;;;6.90;99.90;;;;;;5043308;28;20037;-88
2023/02/01 11:17:46;;;;;;;0.50;0.50;;;6.70;99.90;;;;;;5049263;28;20440;-86
2023/02/01 11:20:20;;;;;;;0.60;0.60;;;6.40;99.90;;;;;;5031086;28;20049;-86
2023/02/01 11:22:54;;;;;;;0.50;0.50;;;6.10;99.90;;;;;;5030411;28;20045;-87
2023/02/01 11:25:21;;;;;;;0.50;0.50;;;6.00;99.90;;;;;;5034401;28;20042;-86
2023/02/01 11:27:50;;;;;;;0.60;0.60;;;5.90;99.90;;;;;;5023340;28;20044;-89
2023/02/01 11:30:38;;;;;;;0.68;0.68;;;5.90;99.90;;;;;;5052562;28;20071;-86
2023/02/01 11:33:05;;;;;;;0.60;0.60;;;5.80;99.90;;;;;;5055041;28;20037;-86
2023/02/01 11:35:32;;;;;;;0.60;0.60;;;5.40;99.90;;;;;;5049403;28;20429;-90
2023/02/01 11:37:59;;;;;;;0.68;0.68;;;4.60;99.90;;;;;;5021357;28;20163;-88
2023/02/01 11:40:29;;;;;;;0.60;0.60;;;3.80;99.90;;;;;;5048151;28;20056;-90
2023/02/01 11:43:13;;;;;;;0.70;0.70;;;3.20;99.90;;;;;;5037051;28;20037;-90
2023/02/01 11:45:39;;;;;;;0.90;0.90;;;2.80;99.90;;;;;;5038086;28;20087;-87
2023/02/01 11:48:14;;;;;;;0.55;0.55;;;2.70;99.90;;;;;;5037923;28;20041;-87
2023/02/01 11:50:58;;;;;;;0.68;0.68;;;3.70;99.90;;;;;;5045220;28;20041;-85
2023/02/01 11:53:53;;;;;;;0.65;0.65;;;2.70;99.90;;;;;;5032403;28;20126;-88
2023/02/01 11:57:09;;;;;;;0.70;0.70;;;2.70;99.90;;;;;;5032187;28;20110;-88
2023/02/01 11:59:53;;;;;;;0.77;0.77;;;2.80;99.90;;;;;;5018355;28;20128;-87
2023/02/01 12:02:30;;;;;;;0.70;0.70;;;2.70;99.90;;;;;;5041439;28;20080;-86
2023/02/01 12:05:31;;;;;;;0.57;0.57;;;2.80;99.90;;;;;;5045988;28;20084;-84
2023/02/01 12:08:09;;;;;;;0.70;0.70;;;2.80;99.90;;;;;;5014395;28;20068;-87
2023/02/01 12:11:00;;;;;;;0.50;0.50;;;3.00;99.90;;;;;;5031164;28;20045;-84
2023/02/01 12:13:26;;;;;;;0.70;0.70;;;3.10;99.90;;;;;;5023068;28;20132;-86
2023/02/01 12:16:00;;;;;;;0.80;0.80;;;3.20;99.90;;;;;;5036966;28;20167;-83
2023/02/01 12:18:39;;;;;;;0.70;0.70;;;3.30;99.90;;;;;;5032781;28;20035;-83
2023/02/01 12:21:14;;;;;;;0.60;0.60;;;3.50;99.90;;;;;;5014581;28;20372;-84
2023/02/01 12:23:51;;;;;;;0.63;0.63;;;3.80;99.90;;;;;;5028845;28;20033;-84
2023/02/01 12:26:58;;;;;;;0.70;0.70;;;4.10;99.90;;;;;;5036901;28;20041;-85
2023/02/01 12:29:36;;;;;;;0.60;0.60;;;4.40;99.90;;;;;;5032721;28;21955;-85
2023/02/01 12:32:22;;;;;;;0.68;0.68;;;4.60;99.90;;;;;;5033702;28;20048;-85
2023/02/01 12:35:27;;;;;;;0.60;0.60;;;4.70;99.90;;;;;;5033655;28;20045;-84
2023/02/01 12:38:30;;;;;;;0.70;0.70;;;5.10;99.90;;;;;;5014688;28;20079;-88
2023/02/01 12:41:11;;;;;;;0.68;0.68;;;5.70;99.90;;;;;;5014750;28;20073;-89
2023/02/01 12:43:56;;;;;;;0.60;0.60;;;6.20;99.90;;;;;;5030672;28;20053;-84
2023/02/01 12:46:34;;;;;;;0.50;0.50;;;6.50;99.90;;;;;;5021183;28;20048;-85
2023/02/01 12:49:41;;;;;;;0.50;0.50;;;6.70;99.90;;;;;;5041003;28;20122;-86
2023/02/01 12:52:16;;;;;;;0.40;0.40;;;6.70;99.90;;;;;;5012521;28;20044;-85
2023/02/01 12:54:49;;;;;;;0.60;0.60;;;6.80;99.90;;;;;;5020998;28;20153;-87
2023/02/01 12:57:25;;;;;;;0.60;0.60;;;6.80;99.90;;;;;;5026526;28;20052;-88
2023/02/01 13:00:10;;;;;;;0.60;0.60;;;6.90;99.90;;;;;;5021473;28;20075;-88
2023/02/01 13:02:53;;;;;;;0.60;0.60;;;7.00;99.90;;;;;;5034917;28;20140;-83
2023/02/01 13:05:24;;;;;;;0.60;0.60;;;7.00;99.90;;;;;;5027013;28;20041;-88
2023/02/01 13:08:02;;;;;;;0.60;0.60;;;7.10;99.90;;;;;;5037562;28;20108;-88
2023/02/01 13:10:32;;;;;;;0.50;0.50;;;7.10;99.90;;;;;;5034993;28;20202;-85
2023/02/01 13:13:17;;;;;;;2.03;1.23;;;7.10;99.90;;;;;;5031279;28;20049;-85
2023/02/01 13:16:02;;;;;;;0.60;0.60;;;7.10;99.90;;;;;;5050139;28;20204;-84
2023/02/01 13:18:39;;;;;;;0.50;0.50;;;7.20;99.90;;;;;;5032247;28;20076;-85
2023/02/01 13:21:17;;;;;;;0.65;0.65;;;7.30;99.90;;;;;;5033793;28;20041;-85
2023/02/01 13:23:46;;;;;;;0.90;0.80;;;7.40;99.90;;;;;;5034594;28;20096;-85
2023/02/01 13:26:12;;;;;;;0.63;0.63;;;7.50;99.90;;;;;;5036141;28;20053;-87
2023/02/01 13:29:01;;;;;;;0.85;0.85;;;7.50;99.90;;;;;;5034544;28;20049;-87
2023/02/01 13:31:52;;;;;;;0.55;0.55;;;7.40;99.90;;;;;;5039427;28;20067;-85
2023/02/01 13:34:36;;;;;;;0.45;0.45;;;7.40;99.90;;;;;;5036294;28;20045;-86
2023/02/01 13:37:09;;;;;;;0.50;0.50;;;7.40;99.90;;;;;;5033718;28;20053;-86
2023/02/01 13:39:45;;;;;;;0.43;0.43;;;7.40;99.90;;;;;;5037435;28;20048;-86
2023/02/01 13:42:48;;;;;;;0.60;0.60;;;7.40;99.90;;;;;;5019520;28;20501;-86
2023/02/01 13:45:17;;;;;;;0.60;0.60;;;7.40;99.90;;;;;;5019580;28;20569;-86
2023/02/01 13:47:47;;;;;;;0.60;0.60;;;7.50;99.90;;;;;;5056882;28;20079;-84